Time;durP1;ratioP1;P1;durP2;ratioP2;P2;SDS_P1;SDS_P2;PMS_P1;PMS_P2;Temp;Humidity;BMP_temperature;BMP_pressure;BME280_temperature;BME280_humidity;BME280_pressure;Samples;Min_cycle;Max_cycle;Signal;HPM_P1;HPM_P2
2022/07/12 00:01:58;;;;;;;2.60;1.30;;;;;;;12.81;67.35;101145.13;105533;1273;71755;-74
2022/07/12 00:04:27;;;;;;;6.20;1.30;;;;;;;12.79;67.35;101144.77;105452;1272;71682;-74
2022/07/12 00:06:56;;;;;;;3.60;1.40;;;;;;;12.70;67.46;101148.34;105502;1273;71115;-74
2022/07/12 00:09:25;;;;;;;2.70;1.30;;;;;;;12.61;68.04;101152.30;105614;1273;74830;-70
2022/07/12 00:11:55;;;;;;;3.30;1.20;;;;;;;12.51;68.61;101149.80;105613;1273;62716;-69
2022/07/12 00:14:25;;;;;;;3.10;1.10;;;;;;;12.43;68.76;101147.91;104991;1273;687509;-71
2022/07/12 00:16:54;;;;;;;2.50;1.30;;;;;;;12.34;69.20;101146.96;105665;1272;74585;-72
2022/07/12 00:19:22;;;;;;;4.10;1.30;;;;;;;12.24;69.90;101146.17;105644;1273;72831;-71
2022/07/12 00:21:51;;;;;;;2.90;1.40;;;;;;;12.17;70.24;101146.30;105510;1273;68556;-72
2022/07/12 00:24:20;;;;;;;2.60;1.30;;;;;;;12.15;70.16;101150.64;105484;1273;72556;-72
2022/07/12 00:26:49;;;;;;;2.20;1.20;;;;;;;12.08;70.32;101149.20;105508;1273;60960;-72
2022/07/12 00:29:18;;;;;;;2.60;1.50;;;;;;;12.03;70.79;101148.91;105452;1271;59487;-72
2022/07/12 00:31:46;;;;;;;4.80;1.40;;;;;;;12.03;70.78;101156.73;105418;1273;72953;-74
2022/07/12 00:34:15;;;;;;;4.20;1.40;;;;;;;12.01;71.02;101159.00;105449;1273;69574;-73
2022/07/12 00:36:44;;;;;;;2.40;1.20;;;;;;;11.93;71.33;101161.94;105526;1272;68923;-73
2022/07/12 00:39:13;;;;;;;2.80;1.50;;;;;;;11.85;71.49;101162.02;105503;1273;71133;-74
2022/07/12 00:41:42;;;;;;;3.40;1.30;;;;;;;11.82;71.80;101163.80;105443;1273;62398;-72
2022/07/12 00:44:11;;;;;;;2.60;1.40;;;;;;;11.76;71.56;101163.48;105398;1272;60709;-73
2022/07/12 00:46:39;;;;;;;2.40;1.40;;;;;;;11.72;71.78;101167.13;105470;1272;74066;-73
2022/07/12 00:49:09;;;;;;;4.70;1.50;;;;;;;11.69;71.96;101166.95;105459;1271;70311;-72
2022/07/12 00:51:37;;;;;;;2.10;1.30;;;;;;;11.68;71.54;101161.42;105407;1273;69694;-71
2022/07/12 00:54:06;;;;;;;4.60;1.50;;;;;;;11.62;72.34;101158.89;105487;1273;71395;-72
2022/07/12 00:56:37;;;;;;;3.90;1.40;;;;;;;11.66;72.19;101162.11;105578;1273;61544;-73
2022/07/12 00:59:05;;;;;;;2.40;1.40;;;;;;;11.71;72.15;101163.71;105588;1273;60908;-70
2022/07/12 01:01:34;;;;;;;5.00;1.50;;;;;;;11.66;71.97;101161.56;105584;1273;72739;-72
2022/07/12 01:04:04;;;;;;;11.30;1.70;;;;;;;11.61;72.17;101164.54;105690;1272;70749;-72
2022/07/12 01:06:33;;;;;;;5.10;1.50;;;;;;;11.56;72.24;101169.96;105648;1273;71057;-70
2022/07/12 01:09:02;;;;;;;4.90;1.40;;;;;;;11.49;72.52;101172.19;105682;1273;74430;-79
2022/07/12 01:11:31;;;;;;;5.60;1.50;;;;;;;11.44;72.95;101174.47;105808;1273;59783;-79
2022/07/12 01:14:01;;;;;;;8.10;1.50;;;;;;;11.38;73.40;101167.31;105541;1272;61892;-77
2022/07/12 01:16:32;;;;;;;14.20;1.70;;;;;;;11.33;73.55;101164.74;105454;1272;74886;-79
2022/07/12 01:19:05;;;;;;;9.20;1.60;;;;;;;11.27;73.67;101165.66;105448;1272;70128;-79
2022/07/12 01:21:39;;;;;;;10.80;1.80;;;;;;;11.23;73.62;101163.48;105566;1273;71117;-77
2022/07/12 01:24:08;;;;;;;3.70;1.40;;;;;;;11.17;73.94;101159.36;105441;1273;74073;-76
2022/07/12 01:26:37;;;;;;;3.60;1.30;;;;;;;11.14;74.07;101159.05;105403;1272;62057;-75
2022/07/12 01:29:07;;;;;;;2.50;1.40;;;;;;;11.12;74.13;101160.72;105462;1272;60876;-76
2022/07/12 01:31:36;;;;;;;1.90;1.40;;;;;;;11.10;74.19;101161.75;105441;1272;75133;-75
2022/07/12 01:34:09;;;;;;;4.30;1.40;;;;;;;11.04;74.25;101164.26;105433;1272;70580;-76
2022/07/12 01:36:40;;;;;;;3.00;1.80;;;;;;;10.95;74.03;101168.16;105413;1273;68847;-78
2022/07/12 01:39:09;;;;;;;3.40;1.50;;;;;;;10.87;75.21;101166.23;105473;1272;74094;-77
2022/07/12 01:41:39;;;;;;;6.00;1.80;;;;;;;10.78;75.17;101156.89;105493;1272;63578;-76
2022/07/12 01:44:07;;;;;;;3.80;1.40;;;;;;;10.96;74.78;101170.87;105465;1272;62991;-75
2022/07/12 01:46:37;;;;;;;2.00;1.30;;;;;;;11.00;74.73;101170.30;105432;1273;72664;-73
2022/07/12 01:49:06;;;;;;;4.00;1.80;;;;;;;11.02;74.43;101170.34;105464;1273;71569;-75
2022/07/12 01:51:35;;;;;;;3.10;1.80;;;;;;;10.98;74.73;101169.35;105436;1272;70458;-74
2022/07/12 01:54:03;;;;;;;4.50;1.60;;;;;;;10.96;74.85;101171.38;105425;1272;73942;-76
2022/07/12 01:56:32;;;;;;;5.30;1.60;;;;;;;10.93;75.02;101171.95;105540;1272;60414;-74
2022/07/12 01:59:01;;;;;;;3.70;1.50;;;;;;;10.88;75.05;101169.50;105558;1273;59888;-76
2022/07/12 02:01:31;;;;;;;4.10;1.60;;;;;;;10.85;74.83;101171.93;105559;1273;72117;-75
2022/07/12 02:04:04;;;;;;;2.80;1.60;;;;;;;10.83;75.54;101173.83;105533;1272;73033;-76
2022/07/12 02:06:34;;;;;;;1.40;1.20;;;;;;;10.81;74.81;101178.00;105642;1272;68118;-74
2022/07/12 02:09:03;;;;;;;4.60;1.50;;;;;;;10.73;74.43;101182.48;106631;1272;74452;-75
2022/07/12 02:11:32;;;;;;;4.60;1.50;;;;;;;10.69;75.13;101187.13;106548;1272;63574;-78
2022/07/12 02:14:00;;;;;;;2.20;1.40;;;;;;;10.64;74.88;101187.66;106242;1272;61051;-76
2022/07/12 02:16:29;;;;;;;4.90;1.60;;;;;;;10.62;76.58;101190.23;106047;1272;73999;-76
2022/07/12 02:18:58;;;;;;;4.90;1.40;;;;;;;10.60;76.29;101192.06;105875;1272;70515;-77
2022/07/12 02:21:28;;;;;;;5.60;1.70;;;;;;;10.60;76.38;101193.84;105752;1273;69291;-77
2022/07/12 02:23:57;;;;;;;4.40;1.70;;;;;;;10.66;76.98;101198.15;105652;1272;73323;-76
2022/07/12 02:26:27;;;;;;;4.40;1.50;;;;;;;10.72;76.59;101194.48;105626;1273;63699;-78
2022/07/12 02:28:56;;;;;;;4.70;1.40;;;;;;;10.70;76.47;101199.08;105594;1272;60945;-77
2022/07/12 02:31:25;;;;;;;4.90;2.40;;;;;;;10.65;76.40;101203.23;105643;1273;74645;-77
2022/07/12 02:33:55;;;;;;;4.00;1.60;;;;;;;10.62;76.65;101201.87;105518;1272;71414;-77
2022/07/12 02:36:24;;;;;;;2.70;1.40;;;;;;;10.59;76.56;101200.98;105497;1272;70820;-77
2022/07/12 02:38:53;;;;;;;3.20;1.80;;;;;;;10.70;76.11;101196.66;105478;1272;73028;-77
2022/07/12 02:41:21;;;;;;;5.10;1.50;;;;;;;10.70;75.97;101200.85;105483;1272;63573;-77
2022/07/12 02:43:50;;;;;;;3.50;1.60;;;;;;;10.71;75.85;101203.93;105451;1271;60101;-79
2022/07/12 02:46:19;;;;;;;4.50;1.70;;;;;;;10.72;76.21;101199.65;105547;1272;71782;-81
2022/07/12 02:48:48;;;;;;;7.80;1.80;;;;;;;10.68;76.17;101198.54;105764;1272;70559;-78
2022/07/12 02:51:17;;;;;;;2.60;1.60;;;;;;;10.62;75.77;101203.27;105768;1273;69902;-80
2022/07/12 02:53:46;;;;;;;3.30;1.80;;;;;;;10.60;75.39;101203.04;105626;1271;74107;-77
2022/07/12 02:56:14;;;;;;;4.00;1.60;;;;;;;10.59;75.50;101203.12;105531;1272;62587;-76
2022/07/12 02:58:43;;;;;;;4.20;1.80;;;;;;;10.65;76.77;101204.33;105488;1271;60873;-78
2022/07/12 03:01:13;;;;;;;5.50;1.90;;;;;;;10.68;76.48;101203.98;105636;1271;73800;-79
2022/07/12 03:03:42;;;;;;;4.20;2.00;;;;;;;10.67;76.72;101198.39;105381;1272;71169;-80
2022/07/12 03:06:12;;;;;;;6.10;2.30;;;;;;;10.82;76.53;101209.40;105440;1271;68799;-79
2022/07/12 03:08:42;;;;;;;8.70;2.10;;;;;;;10.93;76.37;101212.57;105515;1272;73132;-79
2022/07/12 03:11:11;;;;;;;5.20;2.10;;;;;;;10.99;76.24;101207.80;105597;1272;60470;-79
2022/07/12 03:13:39;;;;;;;7.40;2.30;;;;;;;11.08;75.91;101210.84;105558;1272;62915;-77
2022/07/12 03:16:08;;;;;;;10.30;2.60;;;;;;;11.11;75.39;101207.89;105638;1273;74306;-79
2022/07/12 03:18:40;;;;;;;7.20;2.40;;;;;;;11.14;75.24;101202.77;105572;1272;70223;-77
2022/07/12 03:21:09;;;;;;;10.30;2.50;;;;;;;11.23;74.87;101206.17;105595;1273;68139;-76
2022/07/12 03:23:39;;;;;;;7.20;2.40;;;;;;;11.37;74.40;101202.27;105590;1272;72206;-77
2022/07/12 03:26:08;;;;;;;11.20;2.20;;;;;;;11.44;74.37;101202.15;105594;1272;60677;-77
2022/07/12 03:28:36;;;;;;;8.20;2.00;;;;;;;11.47;74.44;101204.23;105588;1272;59888;-77
2022/07/12 03:31:05;;;;;;;6.80;2.00;;;;;;;11.56;74.19;101199.96;105611;1272;71872;-78
2022/07/12 03:33:34;;;;;;;7.60;2.50;;;;;;;11.62;74.01;101197.26;105666;1271;69719;-75
2022/07/12 03:36:03;;;;;;;18.50;3.20;;;;;;;11.64;73.77;101199.39;105799;1273;70825;-75
2022/07/12 03:38:32;;;;;;;15.50;2.60;;;;;;;11.68;73.74;101199.65;105906;1273;74433;-77
2022/07/12 03:41:01;;;;;;;12.40;2.20;;;;;;;11.73;73.77;101199.31;105789;1272;62172;-76
2022/07/12 03:43:29;;;;;;;11.10;2.10;;;;;;;11.75;73.85;101200.89;105662;1272;59639;-76
2022/07/12 03:45:58;;;;;;;14.10;2.60;;;;;;;11.79;73.57;101209.02;105637;1273;72590;-74
2022/07/12 03:48:27;;;;;;;18.00;2.80;;;;;;;11.82;73.60;101209.73;105674;1271;70505;-77
2022/07/12 03:50:56;;;;;;;32.60;3.70;;;;;;;11.82;73.87;101210.19;105636;1273;70679;-75
2022/07/12 03:53:25;;;;;;;22.30;3.30;;;;;;;11.85;73.81;101215.59;105637;1270;74514;-77
2022/07/12 03:55:53;;;;;;;28.30;3.90;;;;;;;11.88;73.63;101219.56;105578;1271;62060;-76
2022/07/12 03:58:22;;;;;;;19.90;3.10;;;;;;;11.95;73.55;101223.43;105717;1271;59067;-78
2022/07/12 04:00:50;;;;;;;15.60;2.80;;;;;;;12.07;73.09;101224.88;105697;1271;74586;-78
2022/07/12 04:03:19;;;;;;;6.00;2.70;;;;;;;12.19;72.68;101230.48;105603;1271;70895;-77
2022/07/12 04:05:48;;;;;;;6.00;2.50;;;;;;;12.27;71.60;101233.63;105612;1273;68047;-77
2022/07/12 04:08:17;;;;;;;6.70;2.90;;;;;;;12.29;71.23;101230.29;105676;1272;71331;-77
2022/07/12 04:10:45;;;;;;;4.80;3.10;;;;;;;12.30;71.39;101232.30;105597;1271;63110;-77
2022/07/12 04:13:14;;;;;;;7.00;2.60;;;;;;;12.37;71.07;101234.82;105721;1270;59814;-79
2022/07/12 04:15:43;;;;;;;7.30;2.40;;;;;;;12.46;70.74;101236.05;105678;1271;74252;-77
2022/07/12 04:18:14;;;;;;;5.90;2.70;;;;;;;12.55;70.48;101240.64;105612;1273;73227;-77
2022/07/12 04:20:44;;;;;;;5.60;2.90;;;;;;;12.70;70.29;101245.15;105628;1273;69844;-77
2022/07/12 04:23:13;;;;;;;6.30;2.60;;;;;;;12.82;69.83;101241.00;105617;1273;72465;-78
2022/07/12 04:25:42;;;;;;;11.40;2.90;;;;;;;12.97;69.16;101236.38;105666;1273;59883;-79
2022/07/12 04:28:11;;;;;;;4.30;2.10;;;;;;;13.12;68.76;101237.55;105719;1271;60648;-79
2022/07/12 04:30:40;;;;;;;8.00;2.80;;;;;;;13.21;68.45;101236.16;105763;1271;74247;-82
2022/07/12 04:33:10;;;;;;;8.60;2.70;;;;;;;13.37;67.53;101233.39;106006;1273;71049;-81
2022/07/12 04:35:39;;;;;;;4.90;2.30;;;;;;;13.48;66.92;101229.77;105588;1272;68866;-71
2022/07/12 04:38:08;;;;;;;6.10;2.70;;;;;;;13.59;66.47;101236.45;105515;1272;73286;-72
2022/07/12 04:40:37;;;;;;;8.20;2.50;;;;;;;13.69;66.28;101233.77;105540;1272;63342;-80
2022/07/12 04:43:06;;;;;;;3.60;2.30;;;;;;;13.79;66.17;101232.27;105783;1271;61853;-81
2022/07/12 04:45:35;;;;;;;7.90;2.50;;;;;;;13.88;65.59;101232.30;105559;1271;75339;-80
2022/07/12 04:48:04;;;;;;;4.80;2.20;;;;;;;13.95;65.70;101234.54;105543;1271;70772;-81
2022/07/12 04:50:33;;;;;;;5.30;2.50;;;;;;;14.03;65.14;101231.27;105626;1273;67871;-85
2022/07/12 04:53:03;;;;;;;7.50;3.10;;;;;;;14.12;64.78;101227.63;105722;1272;74103;-86
2022/07/12 04:55:31;;;;;;;4.90;2.30;;;;;;;14.22;64.57;101229.74;105537;1272;63211;-75
2022/07/12 04:58:00;;;;;;;4.50;1.50;;;;;;;14.32;63.96;101234.20;105447;1272;59419;-77
2022/07/12 05:00:30;;;;;;;3.10;1.30;;;;;;;14.41;63.19;101228.95;105466;1272;72660;-76
2022/07/12 05:02:59;;;;;;;4.40;1.80;;;;;;;14.48;63.04;101231.03;105456;1272;72438;-75
2022/07/12 05:05:28;;;;;;;5.80;2.00;;;;;;;14.59;62.61;101227.37;105419;1272;70319;-75
2022/07/12 05:07:56;;;;;;;4.30;1.80;;;;;;;14.68;62.40;101230.48;105410;1273;71457;-76
2022/07/12 05:10:25;;;;;;;3.50;1.90;;;;;;;14.78;61.34;101224.36;105465;1273;59062;-75
2022/07/12 05:12:54;;;;;;;4.00;1.80;;;;;;;14.96;60.75;101219.77;105546;1272;60680;-76
2022/07/12 05:15:23;;;;;;;4.90;1.50;;;;;;;15.10;60.61;101215.42;105602;1272;73022;-76
2022/07/12 05:17:52;;;;;;;6.70;1.90;;;;;;;15.24;59.22;101213.38;105544;1273;69706;-77
2022/07/12 05:20:21;;;;;;;3.00;1.50;;;;;;;15.35;58.60;101210.87;105571;1272;68100;-76
2022/07/12 05:22:50;;;;;;;4.00;1.40;;;;;;;15.48;56.98;101208.40;105390;1273;73029;-76
2022/07/12 05:25:20;;;;;;;3.00;1.50;;;;;;;15.55;56.34;101209.86;105435;1273;60511;-75
2022/07/12 05:27:48;;;;;;;5.10;2.10;;;;;;;15.63;56.47;101209.36;105630;1272;60530;-74
2022/07/12 05:30:17;;;;;;;5.90;2.00;;;;;;;15.73;55.98;101212.73;106056;1272;74268;-76
2022/07/12 05:32:46;;;;;;;13.70;6.20;;;;;;;15.79;55.00;101209.05;106504;1272;70306;-74
2022/07/12 05:35:15;;;;;;;5.00;2.50;;;;;;;15.94;55.58;101211.27;106061;1272;67919;-75
2022/07/12 05:37:44;;;;;;;5.90;1.60;;;;;;;16.07;55.74;101209.28;105882;1272;73466;-76
2022/07/12 05:40:13;;;;;;;3.80;1.80;;;;;;;16.08;55.38;101205.80;105744;1272;61727;-77
2022/07/12 05:42:42;;;;;;;4.30;1.70;;;;;;;16.23;55.09;101209.11;105700;1273;59555;-79
2022/07/12 05:45:11;;;;;;;5.00;1.60;;;;;;;16.34;55.38;101213.20;105487;1274;72664;-75
2022/07/12 05:47:40;;;;;;;5.20;1.60;;;;;;;16.46;54.93;101211.62;105567;1272;72836;-77
2022/07/12 05:50:09;;;;;;;5.20;2.00;;;;;;;16.57;54.28;101207.27;105634;1273;70623;-76
2022/07/12 05:55:25;;;;;;;3.60;1.70;;;;;;;16.76;53.12;101204.42;105737;1272;59844;-77
2022/07/12 05:57:54;;;;;;;3.30;1.70;;;;;;;16.74;53.54;101202.48;105712;1272;59633;-77
2022/07/12 06:00:23;;;;;;;4.10;1.60;;;;;;;16.87;53.17;101199.31;105963;1272;72715;-78
2022/07/12 06:02:52;;;;;;;4.80;1.50;;;;;;;17.06;52.30;101204.98;105691;1273;70722;-79
2022/07/12 06:05:22;;;;;;;3.50;1.40;;;;;;;17.11;52.50;101204.13;105645;1272;70721;-79
2022/07/12 06:07:51;;;;;;;4.30;1.50;;;;;;;17.23;52.00;101199.52;105580;1273;74075;-78
2022/07/12 06:10:19;;;;;;;3.30;1.30;;;;;;;17.31;51.33;101198.59;105604;1273;61097;-79
2022/07/12 06:12:49;;;;;;;6.30;1.90;;;;;;;17.34;51.31;101197.11;105610;1272;61973;-79
2022/07/12 06:15:20;;;;;;;4.50;1.90;;;;;;;17.44;50.94;101193.27;105562;1273;72466;-78
2022/07/12 06:17:49;;;;;;;2.10;1.30;;;;;;;17.43;50.86;101191.81;105456;1272;73417;-78
2022/07/12 06:20:18;;;;;;;3.20;1.60;;;;;;;17.36;50.68;101193.96;105603;1273;69823;-81
2022/07/12 06:22:46;;;;;;;4.20;1.20;;;;;;;17.46;50.84;101191.38;106042;1272;73893;-82
2022/07/12 06:25:20;;;;;;;4.10;1.70;;;;;;;17.58;50.30;101192.36;105880;1272;59571;-82
2022/07/12 06:28:10;;;;;;;3.70;1.30;;;;;;;17.73;50.29;101189.02;105922;1272;61223;-82
2022/07/12 06:30:39;;;;;;;3.10;1.40;;;;;;;17.84;49.49;101190.64;105758;1273;72843;-82
2022/07/12 06:33:11;;;;;;;4.00;1.20;;;;;;;17.77;49.42;101184.61;105855;1272;69973;-83
2022/07/12 06:35:41;;;;;;;2.50;1.50;;;;;;;17.81;49.33;101198.34;105781;1273;68864;-82
2022/07/12 06:38:10;;;;;;;4.00;1.80;;;;;;;17.53;49.69;101192.69;105565;1273;72238;-83
2022/07/12 06:40:39;;;;;;;2.70;1.60;;;;;;;17.63;49.69;101195.79;105832;1272;59789;-81
2022/07/12 06:43:11;;;;;;;4.30;1.40;;;;;;;17.75;49.91;101188.52;106779;1273;61608;-81
2022/07/12 06:45:43;;;;;;;4.40;1.40;;;;;;;17.92;49.03;101186.35;105820;1273;73824;-85
2022/07/12 06:48:14;;;;;;;3.60;1.40;;;;;;;17.84;48.37;101185.73;105859;1272;71741;-82
2022/07/12 06:50:43;;;;;;;3.50;1.30;;;;;;;17.93;48.37;101180.48;105992;1273;69076;-83
2022/07/12 06:53:14;;;;;;;3.40;1.50;;;;;;;18.05;47.97;101178.05;106161;1272;73655;-84
2022/07/12 06:55:44;;;;;;;3.60;1.50;;;;;;;17.96;47.58;101178.04;105924;1273;59614;-83
2022/07/12 06:58:14;;;;;;;4.10;1.30;;;;;;;18.13;47.42;101180.63;106150;1272;60560;-84
2022/07/12 07:00:44;;;;;;;5.10;1.40;;;;;;;18.40;46.37;101179.41;105981;1273;64421;-85
2022/07/12 07:03:14;;;;;;;2.50;1.40;;;;;;;18.53;46.18;101177.38;105970;1272;61070;-83
2022/07/12 07:05:43;;;;;;;1.90;1.30;;;;;;;18.61;45.67;101176.77;105922;1272;70790;-83
2022/07/12 07:08:14;;;;;;;3.10;1.30;;;;;;;18.67;45.58;101181.85;105831;1272;73941;-83
2022/07/12 07:10:43;;;;;;;2.50;1.50;;;;;;;18.80;45.14;101181.27;105857;1272;59668;-84
2022/07/12 07:13:13;;;;;;;3.20;1.60;;;;;;;18.87;45.30;101177.73;105836;1273;59016;-83
2022/07/12 07:15:42;;;;;;;6.50;1.60;;;;;;;19.08;44.72;101181.27;105865;1273;74452;-83
2022/07/12 07:18:12;;;;;;;5.00;1.60;;;;;;;19.13;44.11;101176.44;105915;1273;63459;-84
2022/07/12 07:20:41;;;;;;;3.90;1.40;;;;;;;19.39;44.47;101173.05;105977;1272;70847;-82
2022/07/12 07:23:16;;;;;;;2.20;1.50;;;;;;;19.59;43.44;101174.33;106045;1272;63447;-82
2022/07/12 07:25:49;;;;;;;2.20;1.40;;;;;;;19.85;43.00;101175.36;105847;1272;59750;-80
2022/07/12 07:28:18;;;;;;;3.70;1.40;;;;;;;20.14;42.55;101178.33;105741;1272;60717;-81
2022/07/12 07:31:08;;;;;;;3.00;1.20;;;;;;;20.16;42.60;101174.69;105899;1272;63651;-82
2022/07/12 07:33:37;;;;;;;2.40;1.40;;;;;;;20.17;42.42;101172.91;106146;1273;61800;-82
2022/07/12 07:36:25;;;;;;;2.40;1.40;;;;;;;19.93;41.85;101167.98;105871;1271;69986;-82
2022/07/12 07:38:58;;;;;;;2.90;1.30;;;;;;;20.18;41.75;101170.16;106032;1272;74551;-83
2022/07/12 07:41:27;;;;;;;3.30;1.40;;;;;;;20.53;41.43;101173.27;105764;1272;61099;-80
2022/07/12 07:43:58;;;;;;;3.20;1.40;;;;;;;20.62;41.27;101176.39;105961;1271;59761;-83
2022/07/12 07:46:33;;;;;;;2.90;1.50;;;;;;;20.73;41.82;101169.73;105920;1272;63256;-84
2022/07/12 07:49:06;;;;;;;2.50;1.20;;;;;;;20.73;40.43;101160.63;105921;1272;62819;-82
2022/07/12 07:51:38;;;;;;;3.00;1.20;;;;;;;20.63;39.11;101169.55;105723;1273;70014;-82
2022/07/12 07:54:08;;;;;;;2.80;1.20;;;;;;;20.82;39.13;101170.33;105963;1273;62979;-83
2022/07/12 07:56:38;;;;;;;2.30;1.20;;;;;;;20.83;39.56;101159.56;105720;1270;59651;-82
2022/07/12 16:08:29;;;;;;;3.70;1.50;;;;;;;26.64;24.20;101002.38;108656;1257;69646;31
2022/07/12 16:11:19;;;;;;;2.00;1.00;;;;;;;26.28;24.95;101005.62;107981;1260;74130;-83
2022/07/12 16:14:31;;;;;;;1.80;1.00;;;;;;;26.46;24.95;101004.13;107998;1258;61518;31
2022/07/12 17:02:26;;;;;;;2.20;0.90;;;;;;;27.62;23.16;101004.34;107533;1270;72516;31
2022/07/12 17:04:54;;;;;;;2.50;1.10;;;;;;;26.78;24.10;101000.64;107443;1251;70817;-76
2022/07/12 17:07:21;;;;;;;1.60;0.80;;;;;;;25.79;25.30;101000.76;108160;1241;60459;-79
2022/07/12 17:09:48;;;;;;;1.90;0.80;;;;;;;25.67;25.63;101006.26;108222;1241;73049;-77
2022/07/12 17:12:40;;;;;;;1.80;1.00;;;;;;;26.06;25.22;101006.12;108488;1240;57505;-83
2022/07/12 17:15:22;;;;;;;1.60;1.00;;;;;;;26.50;24.80;101007.10;108634;1241;59090;-77
2022/07/12 17:17:50;;;;;;;3.00;1.10;;;;;;;26.61;24.60;101014.94;108221;1241;71156;-78
2022/07/12 17:20:17;;;;;;;3.50;1.10;;;;;;;26.12;24.81;101009.08;108416;1241;61994;-76
2022/07/12 17:22:48;;;;;;;1.90;0.70;;;;;;;25.49;25.79;101011.67;108555;1240;69096;-78
2022/07/12 17:25:15;;;;;;;3.00;0.90;;;;;;;24.99;26.32;101018.07;108351;1241;63717;-80
2022/07/12 17:27:45;;;;;;;2.10;1.00;;;;;;;24.37;27.64;101018.02;108440;1241;62086;-79
2022/07/12 17:30:13;;;;;;;3.80;1.20;;;;;;;24.37;27.74;101021.23;108816;1239;61951;-78
2022/07/12 17:32:43;;;;;;;2.30;0.90;;;;;;;24.53;27.41;101017.38;109082;1241;62012;-84
2022/07/12 17:35:13;;;;;;;4.30;1.10;;;;;;;24.33;27.89;101018.58;109149;1240;71618;-82
2022/07/12 17:37:41;;;;;;;8.00;1.60;;;;;;;24.00;28.26;101023.48;109097;1241;68765;-81
2022/07/12 17:40:12;;;;;;;3.40;1.10;;;;;;;23.70;28.18;101019.73;109089;1240;73556;-82
2022/07/12 17:42:39;;;;;;;3.50;1.20;;;;;;;23.40;28.88;101023.61;109076;1240;58904;-81
2022/07/12 17:45:10;;;;;;;2.50;1.40;;;;;;;23.11;29.74;101021.95;108971;1241;58949;-81
2022/07/12 17:47:38;;;;;;;3.60;1.80;;;;;;;22.84;30.00;101022.65;109750;1238;72797;-84
2022/07/12 17:50:11;;;;;;;8.60;2.60;;;;;;;22.69;30.22;101032.87;109602;1238;62251;-83
2022/07/12 17:52:43;;;;;;;7.60;2.50;;;;;;;22.51;30.33;101028.76;109921;1238;59235;-84
2022/07/12 17:55:13;;;;;;;20.70;2.30;;;;;;;22.31;30.32;101027.01;109495;1238;62590;-83
2022/07/12 17:58:36;;;;;;;19.90;2.10;;;;;;;22.08;31.19;101026.88;109518;1239;57918;-74
2022/07/12 18:00:30;;;;;;;9.30;1.70;;;;;;;21.84;32.46;101026.93;109261;1237;60459;-82
2022/07/12 18:03:00;;;;;;;25.10;2.60;;;;;;;21.65;33.12;101029.16;109351;1236;61852;-83
2022/07/12 18:05:30;;;;;;;17.80;1.90;;;;;;;21.45;33.16;101030.01;109387;1239;61355;-80
2022/07/12 18:08:00;;;;;;;19.80;2.80;;;;;;;21.31;33.62;101030.82;109098;1238;69532;-81
2022/07/12 18:10:29;;;;;;;18.70;3.20;;;;;;;21.15;34.21;101032.36;109311;1237;62701;-80
2022/07/12 18:15:42;;;;;;;9.00;2.50;;;;;;;20.79;35.53;101039.14;109350;1238;57298;-82
2022/07/12 18:18:10;;;;;;;17.70;1.80;;;;;;;20.64;35.73;101037.95;109638;1238;70940;-84
2022/07/12 18:20:37;;;;;;;8.60;1.10;;;;;;;20.50;35.47;101043.09;109975;1238;61989;-83
2022/07/12 18:23:05;;;;;;;6.20;1.50;;;;;;;20.32;34.87;101050.11;109352;1238;69667;-85
2022/07/12 18:25:33;;;;;;;4.30;1.30;;;;;;;20.17;35.84;101051.20;109154;1238;75425;-85
2022/07/12 18:28:02;;;;;;;17.30;2.00;;;;;;;20.10;35.77;101052.85;109180;1238;60349;-84
2022/07/12 18:30:32;;;;;;;23.90;3.00;;;;;;;20.01;37.36;101055.27;109088;1238;58059;-82
2022/07/12 18:33:00;;;;;;;20.70;2.30;;;;;;;19.87;38.83;101057.39;109087;1238;72010;-82
2022/07/12 18:35:34;;;;;;;17.50;2.00;;;;;;;19.76;39.75;101060.13;109035;1238;61231;-84
2022/07/12 18:38:03;;;;;;;28.10;2.50;;;;;;;19.66;40.23;101065.53;109454;1238;59308;-82
2022/07/12 18:40:34;;;;;;;19.20;2.90;;;;;;;19.58;40.44;101067.24;109574;1238;64190;-83
2022/07/12 18:43:03;;;;;;;37.40;3.10;;;;;;;19.44;40.91;101064.95;109590;1238;57565;-83
2022/07/12 18:45:30;;;;;;;32.70;3.10;;;;;;;19.31;41.41;101069.30;109022;1238;57800;-80
2022/07/12 18:48:01;;;;;;;17.30;2.70;;;;;;;19.23;41.75;101073.44;109316;1238;63831;-83
2022/07/12 18:50:28;;;;;;;9.10;1.70;;;;;;;19.13;41.69;101077.56;109350;1239;61349;-81
2022/07/12 18:52:56;;;;;;;10.50;2.00;;;;;;;18.98;40.72;101083.64;109394;1238;69096;-82
2022/07/12 18:55:24;;;;;;;23.70;2.60;;;;;;;18.83;40.51;101082.88;109237;1239;63733;-83
2022/07/12 18:57:52;;;;;;;19.70;2.70;;;;;;;18.62;42.98;101086.59;109651;1238;58913;-86
2022/07/12 19:00:19;;;;;;;26.60;2.70;;;;;;;18.43;43.92;101084.54;109680;1238;60459;-83
2022/07/12 19:02:47;;;;;;;24.50;2.90;;;;;;;18.34;44.10;101087.94;109915;1238;71091;-83
2022/07/12 19:05:15;;;;;;;32.40;3.30;;;;;;;18.26;44.58;101086.45;110306;1238;71760;-82
2022/07/12 19:07:43;;;;;;;20.50;2.90;;;;;;;18.18;44.18;101087.73;110003;1238;60292;-84
2022/07/12 19:10:11;;;;;;;26.60;2.80;;;;;;;18.11;45.10;101089.19;109955;1238;73072;-82
2022/07/12 19:12:41;;;;;;;9.80;2.40;;;;;;;18.02;45.73;101092.33;109818;1237;61286;-88
2022/07/12 19:15:09;;;;;;;23.60;2.30;;;;;;;17.91;45.48;101092.84;110186;1238;60746;-83
2022/07/12 19:17:43;;;;;;;8.90;1.90;;;;;;;17.82;43.93;101094.85;109217;1238;72171;-82
2022/07/12 19:20:12;;;;;;;15.00;2.00;;;;;;;17.68;44.92;101094.18;110190;1236;70174;-87
2022/07/12 19:22:47;;;;;;;11.30;2.40;;;;;;;17.55;46.21;101093.48;110691;1238;70052;-86
2022/07/12 19:25:33;;;;;;;30.30;10.40;;;;;;;17.42;47.55;101093.36;109617;1239;73508;-82
2022/07/12 19:28:13;;;;;;;21.80;4.20;;;;;;;17.25;48.25;101099.02;109459;1239;63275;-88
2022/07/12 19:31:45;;;;;;;8.60;2.60;;;;;;;17.16;48.72;101098.81;109912;1239;61415;-84
2022/07/12 19:34:24;;;;;;;9.80;2.20;;;;;;;17.10;48.78;101100.73;108960;1244;70134;-87
2022/07/12 19:37:08;;;;;;;12.80;2.90;;;;;;;17.09;48.89;101105.77;108249;1244;72014;-84
2022/07/12 20:39:57;;;;;;;16.90;2.80;;;;;;;14.98;55.73;101099.98;104426;1286;615016;-76
2022/07/12 20:42:30;;;;;;;16.40;3.50;;;;;;;14.91;56.24;101097.95;106573;1263;60091;-74
2022/07/12 20:45:04;;;;;;;19.10;2.70;;;;;;;14.87;56.06;101096.17;106587;1260;59897;-75
2022/07/12 20:47:35;;;;;;;24.10;3.60;;;;;;;14.86;56.11;101102.09;107186;1254;70528;-77
2022/07/12 20:50:06;;;;;;;14.40;2.40;;;;;;;14.82;56.27;101103.63;107009;1254;71156;-74
2022/07/12 20:52:35;;;;;;;18.50;2.50;;;;;;;14.80;56.65;101102.92;106676;1254;427078;-74
2022/07/12 20:55:10;;;;;;;17.00;2.90;;;;;;;14.79;56.84;101103.12;107048;1254;74715;-77
2022/07/12 20:57:53;;;;;;;15.00;3.00;;;;;;;14.77;56.65;101103.14;107009;1254;59705;-72
2022/07/12 21:00:25;;;;;;;8.60;2.40;;;;;;;14.72;56.91;101102.69;107233;1254;61632;-75
2022/07/12 21:03:00;;;;;;;9.90;2.20;;;;;;;14.69;57.25;101101.39;107218;1253;70572;-75
2022/07/12 21:05:29;;;;;;;6.50;2.20;;;;;;;14.68;57.40;101101.64;107197;1254;72290;-74
2022/07/12 21:08:00;;;;;;;9.10;1.90;;;;;;;14.60;57.16;101104.20;107028;1254;70957;-73
2022/07/12 21:10:32;;;;;;;7.70;2.40;;;;;;;14.50;57.55;101102.40;107222;1254;74072;-74
2022/07/12 21:13:01;;;;;;;7.60;2.20;;;;;;;14.41;58.27;101104.70;107200;1254;61161;-74
2022/07/12 21:15:28;;;;;;;10.30;2.30;;;;;;;14.35;58.31;101106.77;107077;1254;60210;-72
2022/07/12 21:18:01;;;;;;;11.20;2.50;;;;;;;14.26;58.98;101108.92;107172;1254;73334;-74
2022/07/12 21:20:29;;;;;;;13.30;2.40;;;;;;;14.16;59.21;101110.95;106932;1254;72401;-75
2022/07/12 21:23:00;;;;;;;9.10;3.30;;;;;;;14.12;59.38;101113.09;107049;1252;68038;-73
2022/07/12 21:25:31;;;;;;;11.00;2.20;;;;;;;14.08;58.89;101108.33;107159;1254;74514;-74
2022/07/12 21:28:03;;;;;;;9.50;2.00;;;;;;;14.01;57.93;101104.95;107203;1252;61307;-73
2022/07/12 21:30:33;;;;;;;9.20;1.90;;;;;;;13.95;57.58;101102.48;107061;1254;59296;-74